Search for airport 
image banner adimage banner adimage banner ad
image banner ad

PN90 - Ranch-Aero

Located in Roulette, United States

ICAO - PN90, IATA -

Data provided by Airmate  

General information

Coordinates: N41°44'55" W78°5'59"
Elevation is 1575 feet MSL.
Magnetic variation is -10° East
View others Airports in Pennsylvania

Operational data

Special qualification required
Current time UTC:
Current local time:
METAR: KELZ 071156Z AUTO 00000KT 10SM OVC065 03/M01 A2991 RMK AO2 SLP140 T00331006 10033 20011 55001
View NOTAMs / SUP AIP / TFR affecting this airport [VIEW]
Communications frequencies: [VIEW]

Runways:

RWY identifierQFULength (ft)Width (ft)SurfaceLDA (ft)
142500100GRASS
322500100GRASS

Airport contact information

Address: Roulette United States

Satellite view of PN90